createdAt,value
2023-02-04T00:01:47.118Z,8.40
2023-02-04T00:06:40.205Z,9.10
2023-02-04T00:11:33.070Z,8.30
2023-02-04T00:16:25.900Z,7.60
2023-02-04T00:21:19.377Z,7.90
2023-02-04T00:26:12.234Z,7.80
2023-02-04T00:31:06.010Z,8.30
2023-02-04T00:35:59.168Z,7.90
2023-02-04T00:40:51.980Z,8.80
2023-02-04T00:45:45.714Z,9.90
2023-02-04T00:50:39.964Z,8.00
2023-02-04T00:55:33.406Z,7.80
2023-02-04T01:00:26.413Z,7.80
2023-02-04T01:05:19.980Z,8.20
2023-02-04T01:10:12.952Z,8.10
2023-02-04T01:15:06.221Z,7.40
2023-02-04T01:19:59.123Z,7.50
2023-02-04T01:24:51.934Z,6.90
2023-02-04T01:30:09.226Z,7.70
2023-02-04T01:35:02.048Z,7.20
2023-02-04T01:39:54.864Z,6.70
2023-02-04T01:44:48.162Z,6.20
2023-02-04T01:49:41.086Z,7.20
2023-02-04T01:54:33.980Z,6.90
2023-02-04T01:59:28.149Z,6.30
2023-02-04T02:04:30.454Z,6.00
2023-02-04T02:09:23.524Z,6.60
2023-02-04T02:14:17.063Z,6.50
2023-02-04T02:19:16.326Z,6.00
2023-02-04T02:24:29.456Z,6.80
2023-02-04T02:29:22.909Z,6.80
2023-02-04T02:34:15.986Z,6.50
2023-02-04T02:39:09.371Z,6.30
2023-02-04T02:44:03.497Z,6.40
2023-02-04T02:48:56.814Z,6.80
2023-02-04T02:53:51.153Z,5.70
2023-02-04T02:58:44.113Z,5.70
2023-02-04T03:03:41.003Z,5.70
2023-02-04T03:08:34.299Z,5.40
2023-02-04T03:13:27.304Z,5.60
2023-02-04T03:18:23.577Z,5.00
2023-02-04T03:23:16.556Z,5.20
2023-02-04T03:28:10.601Z,5.30
2023-02-04T03:33:03.520Z,5.20
2023-02-04T03:37:56.525Z,5.10
2023-02-04T03:42:49.308Z,5.30
2023-02-04T03:47:42.208Z,4.80
2023-02-04T03:52:34.972Z,4.80
2023-02-04T03:57:27.896Z,5.30
2023-02-04T04:02:20.753Z,4.80
2023-02-04T04:07:14.046Z,4.90
2023-02-04T04:12:06.916Z,5.00
2023-02-04T04:16:59.758Z,4.30
2023-02-04T04:21:52.581Z,4.00
2023-02-04T04:26:45.373Z,4.50
2023-02-04T04:31:38.253Z,4.40
2023-02-04T04:36:31.137Z,4.70
2023-02-04T04:41:23.992Z,4.30
2023-02-04T04:46:16.850Z,4.40
2023-02-04T04:51:09.649Z,4.80
2023-02-04T04:56:02.451Z,5.70
2023-02-04T05:00:55.281Z,5.30
2023-02-04T05:05:50.958Z,6.10
2023-02-04T05:10:44.873Z,5.50
2023-02-04T05:15:37.985Z,4.80
2023-02-04T05:20:31.312Z,6.20
2023-02-04T05:25:25.780Z,6.10
2023-02-04T05:30:18.791Z,6.80
2023-02-04T05:35:11.668Z,6.00
2023-02-04T05:40:06.310Z,6.30
2023-02-04T05:44:59.116Z,6.90
2023-02-04T05:49:51.925Z,6.20
2023-02-04T05:54:44.738Z,7.20
2023-02-04T05:59:38.103Z,7.00
2023-02-04T06:04:31.017Z,6.60
2023-02-04T06:09:23.828Z,6.80
2023-02-04T06:14:16.664Z,6.70
2023-02-04T06:19:09.494Z,5.20
2023-02-04T06:24:02.923Z,6.20
2023-02-04T06:28:56.289Z,5.70
2023-02-04T06:33:49.085Z,5.50
2023-02-04T06:38:41.972Z,5.70
2023-02-04T06:43:34.772Z,5.00
2023-02-04T06:48:28.569Z,4.90
2023-02-04T06:53:22.466Z,4.30
2023-02-04T06:58:15.304Z,4.80
2023-02-04T07:03:08.407Z,5.00
2023-02-04T07:08:02.053Z,5.00
2023-02-04T07:12:54.854Z,5.00
2023-02-04T07:17:47.843Z,3.80
2023-02-04T07:22:41.365Z,4.40
2023-02-04T07:27:34.146Z,4.60
2023-02-04T07:32:32.848Z,4.00
2023-02-04T07:37:25.656Z,9.80
2023-02-04T07:42:18.464Z,10.30
2023-02-04T07:47:16.875Z,7.60
2023-02-04T07:52:09.791Z,5.90
2023-02-04T07:57:02.633Z,5.70
2023-02-04T08:01:55.476Z,3.40
2023-02-04T08:06:48.327Z,4.60
2023-02-04T08:11:41.198Z,5.10
2023-02-04T08:16:34.041Z,3.30
2023-02-04T08:21:26.819Z,4.20
2023-02-04T08:26:19.613Z,2.60
2023-02-04T08:31:12.919Z,3.10
2023-02-04T08:36:08.057Z,3.20
2023-02-04T08:41:01.145Z,2.80
2023-02-04T08:45:54.409Z,4.20
2023-02-04T08:50:47.281Z,3.40
2023-02-04T08:55:40.087Z,3.50
2023-02-04T09:00:33.181Z,3.20
2023-02-04T09:05:26.934Z,4.10
2023-02-04T09:10:19.990Z,3.20
2023-02-04T09:15:13.348Z,2.20
2023-02-04T09:20:07.080Z,2.20
2023-02-04T09:25:00.463Z,1.50
2023-02-04T09:29:53.325Z,2.00
2023-02-04T09:34:46.183Z,1.60
2023-02-04T09:39:39.007Z,2.00
2023-02-04T09:44:31.798Z,2.00
2023-02-04T09:49:25.866Z,2.90
2023-02-04T09:54:21.076Z,1.90
2023-02-04T09:59:25.774Z,1.70
2023-02-04T10:04:18.692Z,1.90
2023-02-04T10:09:17.014Z,2.30
2023-02-04T10:14:19.369Z,2.30
2023-02-04T10:19:17.062Z,2.00
2023-02-04T10:24:22.671Z,2.00
2023-02-04T10:29:19.356Z,1.60
2023-02-04T10:34:15.879Z,1.60
2023-02-04T10:39:22.542Z,1.50
2023-02-04T10:44:17.812Z,1.90
2023-02-04T10:49:25.387Z,2.30
2023-02-04T10:54:32.031Z,2.80
2023-02-04T10:59:28.102Z,3.00
2023-02-04T11:04:20.916Z,3.30
2023-02-04T11:09:16.745Z,3.50
2023-02-04T11:14:24.938Z,3.70
2023-02-04T11:19:36.314Z,4.70
2023-02-04T11:24:35.417Z,4.10
2023-02-04T11:29:37.030Z,8.40
2023-02-04T11:34:32.054Z,6.20
2023-02-04T11:39:30.306Z,5.10
2023-02-04T11:44:25.321Z,7.00
2023-02-04T11:49:21.581Z,3.60
2023-02-04T11:54:19.116Z,4.40
2023-02-04T12:04:08.979Z,4.20
2023-02-04T12:09:17.216Z,2.60
2023-02-04T12:14:12.985Z,3.10
2023-02-04T12:19:06.109Z,3.70
2023-02-04T12:23:58.958Z,3.50
2023-02-04T12:28:51.738Z,2.80
2023-02-04T12:33:44.619Z,4.20
2023-02-04T12:38:37.468Z,3.40
2023-02-04T12:43:30.288Z,3.20
2023-02-04T12:48:23.139Z,3.60
2023-02-04T12:53:16.529Z,3.70
2023-02-04T12:58:09.334Z,3.10
2023-02-04T13:03:02.164Z,2.40
2023-02-04T13:07:55.222Z,3.70
2023-02-04T13:12:48.127Z,5.50
2023-02-04T13:17:40.907Z,5.50
2023-02-04T13:22:33.767Z,3.20
2023-02-04T13:27:27.853Z,5.50
2023-02-04T13:32:20.664Z,3.00
2023-02-04T13:37:13.509Z,4.60
2023-02-04T13:42:06.394Z,2.10
2023-02-04T13:46:59.200Z,2.80
2023-02-04T13:51:51.981Z,2.90
2023-02-04T13:56:44.776Z,2.70
2023-02-04T14:01:37.563Z,3.30
2023-02-04T14:06:34.032Z,3.80
2023-02-04T14:11:26.962Z,5.60
2023-02-04T14:16:19.857Z,8.30
2023-02-04T14:21:12.633Z,6.00
2023-02-04T14:26:05.578Z,6.10
2023-02-04T14:30:58.455Z,6.00
2023-02-04T14:35:51.346Z,6.70
2023-02-04T14:40:45.768Z,4.40
2023-02-04T14:45:40.982Z,5.80
2023-02-04T14:50:35.012Z,3.00
2023-02-04T14:55:28.865Z,3.60
2023-02-04T15:00:22.258Z,2.80
2023-02-04T15:05:15.570Z,7.40
2023-02-04T15:10:09.870Z,5.20
2023-02-04T15:15:02.695Z,10.50
2023-02-04T15:19:55.521Z,6.30
2023-02-04T15:24:48.350Z,10.80
2023-02-04T15:29:41.302Z,5.80
2023-02-04T15:34:35.134Z,5.70
2023-02-04T15:39:27.982Z,5.90
2023-02-04T15:44:21.704Z,5.70
2023-02-04T15:49:14.480Z,5.30
2023-02-04T15:54:07.258Z,4.90
2023-02-04T15:59:02.375Z,4.80
2023-02-04T16:03:56.703Z,4.90
2023-02-04T16:08:49.976Z,3.50
2023-02-04T16:13:43.926Z,4.50
2023-02-04T16:18:36.715Z,4.80
2023-02-04T16:23:29.555Z,3.90
2023-02-04T16:28:22.506Z,5.20
2023-02-04T16:33:15.495Z,6.00
2023-02-04T16:38:08.245Z,4.90
2023-02-04T16:43:01.043Z,3.90
2023-02-04T16:47:54.600Z,3.90
2023-02-04T16:52:47.418Z,5.10
2023-02-04T16:57:41.966Z,6.90
2023-02-04T17:02:37.403Z,4.70
2023-02-04T17:07:30.252Z,7.00
2023-02-04T17:12:23.089Z,5.20
2023-02-04T17:17:15.874Z,5.50
2023-02-04T17:22:08.750Z,5.90
2023-02-04T17:27:03.407Z,6.00
2023-02-04T17:31:56.677Z,5.30
2023-02-04T17:36:49.569Z,8.90
2023-02-04T17:41:42.801Z,5.80
2023-02-04T17:46:35.914Z,7.70
2023-02-04T17:51:28.751Z,6.40
2023-02-04T17:56:21.967Z,5.50
2023-02-04T18:01:22.035Z,5.70
2023-02-04T18:06:17.975Z,6.20
2023-02-04T18:11:21.059Z,5.80
2023-02-04T18:16:32.063Z,6.20
2023-02-04T18:21:30.262Z,6.60
2023-02-04T18:26:25.796Z,9.80
2023-02-04T18:31:35.417Z,7.10
2023-02-04T18:36:28.498Z,7.10
2023-02-04T18:41:21.614Z,9.90
2023-02-04T18:46:33.942Z,11.40
2023-02-04T18:51:32.869Z,10.10
2023-02-04T18:56:25.661Z,9.30
2023-02-04T19:01:27.659Z,11.90
2023-02-04T19:06:33.160Z,13.00
2023-02-04T19:11:37.255Z,13.80
2023-02-04T19:16:39.687Z,14.60
2023-02-04T19:21:35.326Z,12.40
2023-02-04T19:26:41.949Z,12.80
2023-02-04T19:31:35.513Z,9.40
2023-02-04T19:36:37.119Z,10.40
2023-02-04T19:41:43.193Z,10.50
2023-02-04T19:46:36.004Z,8.50
2023-02-04T19:51:33.333Z,11.30
2023-02-04T20:01:30.617Z,10.20
2023-02-04T20:06:33.615Z,12.50
2023-02-04T20:11:33.080Z,11.00
2023-02-04T20:16:42.569Z,15.50
2023-02-04T20:21:35.793Z,6.90
2023-02-04T20:26:28.870Z,12.70
2023-02-04T20:31:28.767Z,10.10
2023-02-04T20:36:43.335Z,10.40
2023-02-04T20:41:38.692Z,12.10
2023-02-04T20:46:32.946Z,13.40
2023-02-04T20:51:26.798Z,12.90
2023-02-04T20:56:41.194Z,13.10
2023-02-04T21:01:36.816Z,12.80
2023-02-04T21:06:32.796Z,12.50
2023-02-04T21:11:26.520Z,13.40
2023-02-04T21:16:20.362Z,15.60
2023-02-04T21:21:13.547Z,25.00
2023-02-04T21:26:07.340Z,36.90
2023-02-04T21:31:02.120Z,21.50
2023-02-04T21:35:55.085Z,14.20
2023-02-04T21:40:48.166Z,16.20
2023-02-04T21:45:40.992Z,21.70
2023-02-04T21:50:34.521Z,19.20
2023-02-04T21:55:28.809Z,15.20
2023-02-04T22:00:23.932Z,13.70
2023-02-04T22:05:17.469Z,13.00
2023-02-04T22:10:13.722Z,12.40
2023-02-04T22:15:07.799Z,7.60
2023-02-04T22:20:00.573Z,10.10
2023-02-04T22:24:55.175Z,12.10
2023-02-04T22:29:47.988Z,11.90
2023-02-04T22:34:40.892Z,13.20
2023-02-04T22:39:33.670Z,9.80
2023-02-04T22:44:26.619Z,9.10
2023-02-04T22:49:19.399Z,8.30
2023-02-04T22:54:12.451Z,9.50
2023-02-04T22:59:05.274Z,9.50
2023-02-04T23:03:58.069Z,9.30
2023-02-04T23:08:51.347Z,9.30
2023-02-04T23:13:44.169Z,8.80
2023-02-04T23:18:36.967Z,7.00
2023-02-04T23:23:31.673Z,12.00
2023-02-04T23:28:24.504Z,10.50
2023-02-04T23:33:17.269Z,10.00
2023-02-04T23:38:10.108Z,11.70
2023-02-04T23:43:02.900Z,10.50
2023-02-04T23:47:55.714Z,10.80
2023-02-04T23:52:48.502Z,12.50
2023-02-04T23:57:41.893Z,8.50
